createdAt,value
2018-02-18T00:02:55.463Z,0.10
2018-02-18T00:05:28.142Z,0.00
2018-02-18T00:07:54.555Z,0.10
2018-02-18T00:10:20.936Z,0.20
2018-02-18T00:12:48.387Z,0.30
2018-02-18T00:15:14.788Z,0.40
2018-02-18T00:17:41.201Z,0.40
2018-02-18T00:20:08.967Z,0.50
2018-02-18T00:22:36.815Z,0.50
2018-02-18T00:25:03.171Z,0.50
2018-02-18T00:27:29.563Z,0.50
2018-02-18T00:29:55.975Z,0.50
2018-02-18T00:32:23.133Z,0.40
2018-02-18T00:34:49.523Z,0.40
2018-02-18T00:37:15.931Z,0.40
2018-02-18T00:39:42.420Z,0.20
2018-02-18T00:42:08.855Z,0.20
2018-02-18T00:44:35.247Z,0.20
2018-02-18T00:47:01.660Z,0.10
2018-02-18T00:49:29.566Z,0.20
2018-02-18T00:51:55.955Z,0.20
2018-02-18T00:54:24.323Z,0.30
2018-02-18T00:56:51.617Z,0.30
2018-02-18T00:59:18.055Z,0.40
2018-02-18T01:01:44.521Z,0.40
2018-02-18T01:04:10.957Z,0.40
2018-02-18T01:06:38.095Z,0.50
2018-02-18T01:09:04.543Z,0.50
2018-02-18T01:11:30.963Z,0.50
2018-02-18T01:13:57.324Z,0.50
2018-02-18T01:16:23.726Z,0.40
2018-02-18T01:18:50.129Z,0.30
2018-02-18T01:21:17.288Z,0.50
2018-02-18T01:23:43.724Z,0.50
2018-02-18T01:26:10.096Z,0.50
2018-02-18T01:28:37.287Z,0.50
2018-02-18T01:31:04.396Z,0.40
2018-02-18T01:33:30.779Z,0.40
2018-02-18T01:35:57.143Z,0.40
2018-02-18T01:38:24.276Z,0.50
2018-02-18T01:40:50.708Z,0.50
2018-02-18T01:43:17.132Z,0.60
2018-02-18T01:45:43.490Z,0.50
2018-02-18T01:48:09.872Z,0.50
2018-02-18T01:50:37.036Z,0.50
2018-02-18T01:53:03.407Z,0.50
2018-02-18T01:55:29.774Z,0.50
2018-02-18T01:57:56.176Z,0.50
2018-02-18T02:00:23.934Z,0.50
2018-02-18T02:02:50.384Z,0.60
2018-02-18T02:05:16.711Z,0.50
2018-02-18T02:07:42.995Z,0.60
2018-02-18T02:10:10.064Z,0.60
2018-02-18T02:12:36.406Z,0.60
2018-02-18T02:15:02.743Z,0.60
2018-02-18T02:17:30.097Z,0.60
2018-02-18T02:19:56.388Z,0.60
2018-02-18T02:22:23.435Z,0.60
2018-02-18T02:24:50.455Z,0.60
2018-02-18T02:27:16.767Z,0.60
2018-02-18T02:29:43.060Z,0.60
2018-02-18T02:32:09.368Z,0.60
2018-02-18T02:34:36.464Z,0.50
2018-02-18T02:37:02.736Z,0.50
2018-02-18T02:39:29.067Z,0.40
2018-02-18T02:41:55.365Z,0.40
2018-02-18T02:44:21.654Z,0.40
2018-02-18T02:46:48.699Z,0.50
2018-02-18T02:49:15.000Z,0.40
2018-02-18T02:51:42.065Z,0.50
2018-02-18T02:54:09.116Z,0.40
2018-02-18T02:56:36.212Z,0.30
2018-02-18T02:59:02.576Z,0.30
2018-02-18T03:01:28.870Z,0.30
2018-02-18T03:03:55.151Z,0.30
2018-02-18T03:06:23.205Z,0.40
2018-02-18T03:08:49.519Z,0.40
2018-02-18T03:11:15.807Z,0.30
2018-02-18T03:13:42.115Z,0.30
2018-02-18T03:16:09.187Z,0.40
2018-02-18T03:18:35.479Z,0.40
2018-02-18T03:21:01.846Z,0.30
2018-02-18T03:23:28.119Z,0.30
2018-02-18T03:25:54.453Z,0.40
2018-02-18T03:28:20.756Z,0.40
2018-02-18T03:30:48.107Z,0.40
2018-02-18T03:33:14.401Z,0.30
2018-02-18T03:35:41.428Z,0.20
2018-02-18T03:38:07.719Z,0.20
2018-02-18T03:40:34.001Z,0.10
2018-02-18T03:43:00.419Z,0.10
2018-02-18T03:45:26.705Z,0.10
2018-02-18T03:47:52.980Z,0.10
2018-02-18T03:50:19.281Z,0.00
2018-02-18T03:52:45.570Z,0.10
2018-02-18T03:55:12.611Z,0.20
2018-02-18T03:57:39.628Z,0.10
2018-02-18T04:00:05.915Z,0.10
2018-02-18T04:02:32.215Z,0.10
2018-02-18T04:04:59.239Z,0.20
2018-02-18T04:07:25.530Z,0.20
2018-02-18T04:09:51.798Z,0.20
2018-02-18T04:12:18.087Z,0.30
2018-02-18T04:14:45.115Z,0.30
2018-02-18T04:17:11.423Z,0.30
2018-02-18T04:19:38.491Z,0.30
2018-02-18T04:22:04.773Z,0.30
2018-02-18T04:24:31.047Z,0.20
2018-02-18T04:26:58.085Z,0.40
2018-02-18T04:29:25.120Z,0.40
2018-02-18T04:31:51.427Z,0.40
2018-02-18T04:34:17.718Z,0.40
2018-02-18T04:36:43.986Z,0.40
2018-02-18T04:39:10.276Z,0.40
2018-02-18T04:41:36.560Z,0.40
2018-02-18T04:44:02.868Z,0.40
2018-02-18T04:46:29.168Z,0.50
2018-02-18T04:48:55.447Z,0.50
2018-02-18T04:51:21.744Z,0.40
2018-02-18T04:53:48.047Z,0.40
2018-02-18T04:56:15.091Z,0.30
2018-02-18T04:58:42.104Z,0.30
2018-02-18T05:01:08.396Z,0.20
2018-02-18T05:03:34.674Z,0.20
2018-02-18T05:06:00.958Z,0.20
2018-02-18T05:08:27.255Z,0.10
2018-02-18T05:10:54.274Z,0.20
2018-02-18T05:13:21.304Z,0.30
2018-02-18T05:15:47.578Z,0.30
2018-02-18T05:18:14.610Z,0.30
2018-02-18T05:20:41.654Z,0.30
2018-02-18T05:23:07.922Z,0.30
2018-02-18T05:25:34.216Z,0.30
2018-02-18T05:28:01.234Z,0.30
2018-02-18T05:30:27.507Z,0.30
2018-02-18T05:32:54.539Z,0.40
2018-02-18T05:35:21.603Z,0.40
2018-02-18T05:37:48.618Z,0.40
2018-02-18T05:40:14.911Z,0.30
2018-02-18T05:42:41.182Z,0.40
2018-02-18T05:45:07.490Z,0.40
2018-02-18T05:47:33.797Z,0.40
2018-02-18T05:50:00.083Z,0.40
2018-02-18T05:52:27.098Z,0.40
2018-02-18T05:54:53.375Z,0.40
2018-02-18T05:57:21.510Z,0.40
2018-02-18T05:59:47.775Z,0.50
2018-02-18T06:02:14.822Z,0.40
2018-02-18T06:04:41.851Z,0.40
2018-02-18T06:07:08.146Z,0.40
2018-02-18T06:09:34.462Z,0.40
2018-02-18T06:12:00.750Z,0.40
2018-02-18T06:14:27.791Z,0.40
2018-02-18T06:16:54.058Z,0.40
2018-02-18T06:19:20.966Z,0.40
2018-02-18T06:21:48.014Z,0.40
2018-02-18T06:24:15.031Z,0.40
2018-02-18T06:26:41.325Z,0.40
2018-02-18T06:29:07.615Z,0.40
2018-02-18T06:31:35.252Z,0.50
2018-02-18T06:34:01.576Z,0.50
2018-02-18T06:36:28.882Z,0.50
2018-02-18T06:38:55.915Z,0.60
2018-02-18T06:41:23.687Z,0.50
2018-02-18T06:43:50.707Z,0.50
2018-02-18T06:46:16.997Z,0.40
2018-02-18T06:48:43.271Z,0.60
2018-02-18T06:51:09.591Z,0.60
2018-02-18T06:53:35.884Z,0.60
2018-02-18T06:56:02.911Z,0.70
2018-02-18T06:58:29.935Z,0.70
2018-02-18T07:00:56.218Z,0.70
2018-02-18T07:03:22.499Z,0.90
2018-02-18T07:05:49.515Z,1.00
2018-02-18T07:08:15.812Z,1.00
2018-02-18T07:10:42.089Z,1.10
2018-02-18T07:13:08.367Z,1.10
2018-02-18T07:15:34.655Z,1.10
2018-02-18T07:18:00.954Z,1.20
2018-02-18T07:20:28.266Z,1.20
2018-02-18T07:22:55.302Z,1.30
2018-02-18T07:25:23.351Z,1.40
2018-02-18T07:27:49.623Z,1.40
2018-02-18T07:30:16.699Z,1.50
2018-02-18T07:32:42.978Z,1.60
2018-02-18T07:35:10.031Z,1.80
2018-02-18T07:37:37.238Z,1.70
2018-02-18T07:40:03.527Z,1.70
2018-02-18T07:42:29.824Z,1.70
2018-02-18T07:44:56.123Z,1.70
2018-02-18T07:47:22.410Z,1.60
2018-02-18T07:49:49.439Z,1.60
2018-02-18T07:52:16.484Z,1.70
2018-02-18T07:54:42.771Z,1.60
2018-02-18T07:57:09.086Z,1.70
2018-02-18T07:59:35.365Z,1.80
2018-02-18T08:02:01.667Z,1.90
2018-02-18T08:04:27.946Z,2.00
2018-02-18T08:06:55.003Z,2.10
2018-02-18T08:09:22.044Z,2.20
2018-02-18T08:11:49.067Z,2.20
2018-02-18T08:14:15.377Z,2.20
2018-02-18T08:16:41.680Z,2.30
2018-02-18T08:19:08.000Z,2.20
2018-02-18T08:21:34.277Z,2.20
2018-02-18T08:24:00.574Z,2.30
2018-02-18T08:26:26.873Z,2.20
2018-02-18T08:28:53.898Z,2.00
2018-02-18T08:31:20.271Z,2.00
2018-02-18T08:33:46.589Z,2.00
2018-02-18T08:36:13.632Z,2.10
2018-02-18T08:38:40.663Z,2.00
2018-02-18T08:41:07.721Z,2.00
2018-02-18T08:43:34.746Z,2.00
2018-02-18T08:46:01.054Z,2.00
2018-02-18T08:48:27.363Z,2.20
2018-02-18T08:50:53.677Z,2.30
2018-02-18T08:53:20.054Z,2.40
2018-02-18T08:55:46.358Z,2.50
2018-02-18T08:58:12.703Z,2.60
2018-02-18T09:00:39.662Z,2.70
2018-02-18T09:03:05.967Z,2.90
2018-02-18T09:05:32.275Z,3.00
2018-02-18T09:07:58.553Z,3.10
2018-02-18T09:10:24.891Z,2.90
2018-02-18T09:12:51.167Z,2.80
2018-02-18T09:15:17.536Z,2.70
2018-02-18T09:17:43.823Z,2.70
2018-02-18T09:20:10.783Z,2.60
2018-02-18T09:22:37.087Z,2.80
2018-02-18T09:25:04.191Z,3.20
2018-02-18T09:27:30.507Z,3.20
2018-02-18T09:29:56.807Z,3.30
2018-02-18T09:32:23.147Z,3.50
2018-02-18T09:34:49.427Z,3.50
2018-02-18T09:37:15.723Z,3.50
2018-02-18T09:39:42.740Z,3.70
2018-02-18T09:42:09.038Z,3.70
2018-02-18T09:44:35.368Z,3.80
2018-02-18T09:47:01.639Z,3.70
2018-02-18T09:49:28.665Z,3.40
2018-02-18T09:51:54.968Z,3.40
2018-02-18T09:54:21.251Z,3.40
2018-02-18T09:56:48.288Z,3.50
2018-02-18T09:59:14.584Z,3.50
2018-02-18T10:01:40.915Z,3.70
2018-02-18T10:04:07.183Z,3.90
2018-02-18T10:06:33.471Z,4.20
2018-02-18T10:08:59.771Z,4.50
2018-02-18T10:11:26.075Z,4.70
2018-02-18T10:13:53.095Z,5.00
2018-02-18T10:16:19.503Z,4.90
2018-02-18T10:18:45.811Z,5.20
2018-02-18T10:21:12.115Z,5.20
2018-02-18T10:23:39.175Z,5.40
2018-02-18T10:26:06.228Z,5.50
2018-02-18T10:28:33.259Z,5.80
2018-02-18T10:31:00.275Z,6.30
2018-02-18T10:33:26.555Z,6.30
2018-02-18T10:35:52.888Z,6.60
2018-02-18T10:38:19.199Z,6.90
2018-02-18T10:40:46.240Z,6.70
2018-02-18T10:43:13.310Z,6.80
2018-02-18T10:45:40.339Z,6.70
2018-02-18T10:48:07.367Z,6.50
2018-02-18T10:50:33.662Z,6.40
2018-02-18T10:52:59.940Z,6.10
2018-02-18T10:55:26.244Z,5.70
2018-02-18T10:57:52.539Z,5.80
2018-02-18T11:00:19.076Z,5.80
2018-02-18T11:02:45.371Z,6.10
2018-02-18T11:05:11.643Z,6.10
2018-02-18T11:07:37.925Z,6.10
2018-02-18T11:10:04.217Z,5.80
2018-02-18T11:12:30.495Z,5.40
2018-02-18T11:14:57.512Z,5.00
2018-02-18T11:17:23.823Z,4.90
2018-02-18T11:19:50.115Z,4.70
2018-02-18T11:22:17.131Z,4.10
2018-02-18T11:24:43.417Z,4.10
2018-02-18T11:27:09.695Z,4.00
2018-02-18T11:29:36.000Z,4.10
2018-02-18T11:32:02.295Z,4.00
2018-02-18T11:34:28.591Z,3.90
2018-02-18T11:36:55.919Z,3.90
2018-02-18T11:39:23.221Z,3.80
2018-02-18T11:41:50.251Z,4.40
2018-02-18T11:44:17.272Z,4.50
2018-02-18T11:46:43.564Z,4.50
2018-02-18T11:49:09.874Z,4.70
2018-02-18T11:51:36.924Z,4.50
2018-02-18T11:54:03.950Z,4.50
2018-02-18T11:56:32.600Z,4.50
2018-02-18T11:58:58.895Z,4.40
2018-02-18T12:01:25.192Z,4.20
2018-02-18T12:03:51.479Z,4.10
2018-02-18T12:06:17.756Z,4.00
2018-02-18T12:08:44.819Z,3.60
2018-02-18T12:11:11.842Z,3.80
2018-02-18T12:13:38.126Z,3.80
2018-02-18T12:16:04.439Z,3.80
2018-02-18T12:18:30.727Z,3.80
2018-02-18T12:20:57.028Z,3.80
2018-02-18T12:23:23.318Z,3.90
2018-02-18T12:25:51.327Z,4.40
2018-02-18T12:28:17.651Z,4.40
2018-02-18T12:30:43.936Z,4.40
2018-02-18T12:33:10.960Z,4.10
2018-02-18T12:35:37.992Z,3.90
2018-02-18T12:38:04.300Z,3.90
2018-02-18T12:40:30.579Z,3.90
2018-02-18T12:42:56.879Z,3.70
2018-02-18T12:45:23.185Z,3.50
2018-02-18T12:47:49.492Z,3.40
2018-02-18T12:50:16.526Z,3.40
2018-02-18T12:52:43.545Z,3.40
2018-02-18T12:55:09.855Z,3.40
2018-02-18T12:57:36.218Z,3.50
2018-02-18T13:00:02.484Z,3.30
2018-02-18T13:02:30.306Z,3.30
2018-02-18T13:04:56.592Z,3.40
2018-02-18T13:07:22.895Z,3.40
2018-02-18T13:09:50.278Z,3.20
2018-02-18T13:12:16.998Z,3.20
2018-02-18T13:14:44.014Z,3.20
2018-02-18T13:17:10.292Z,3.20
2018-02-18T13:19:36.575Z,3.40
2018-02-18T13:22:02.860Z,3.50
2018-02-18T13:24:29.134Z,3.70
2018-02-18T13:26:56.223Z,3.90
2018-02-18T13:29:22.511Z,3.90
2018-02-18T13:31:49.542Z,4.00
2018-02-18T13:34:15.845Z,4.00
2018-02-18T13:36:42.114Z,4.10
2018-02-18T13:39:08.450Z,4.00
2018-02-18T13:41:34.736Z,3.90
2018-02-18T13:44:01.023Z,3.70
2018-02-18T13:46:28.995Z,3.80
2018-02-18T13:48:56.043Z,3.80
2018-02-18T13:51:23.101Z,3.80
2018-02-18T13:53:50.121Z,3.70
2018-02-18T13:56:16.436Z,3.70
2018-02-18T13:58:42.727Z,3.70
2018-02-18T14:01:09.060Z,3.60
2018-02-18T14:03:36.394Z,3.40
2018-02-18T14:06:03.484Z,3.40
2018-02-18T14:08:29.800Z,3.30
2018-02-18T14:10:56.075Z,3.10
2018-02-18T14:13:22.392Z,3.20
2018-02-18T14:15:48.703Z,3.10
2018-02-18T14:18:15.024Z,3.00
2018-02-18T14:20:41.306Z,2.80
2018-02-18T14:23:07.604Z,2.60
2018-02-18T14:25:33.882Z,2.50
2018-02-18T14:28:00.955Z,2.50
2018-02-18T14:30:27.243Z,2.50
2018-02-18T14:32:54.487Z,2.50
2018-02-18T14:35:20.776Z,2.40
2018-02-18T14:37:47.067Z,2.40
2018-02-18T14:40:13.342Z,2.50
2018-02-18T14:42:51.810Z,2.60
2018-02-18T14:45:30.298Z,2.60
2018-02-18T14:48:08.819Z,2.70
2018-02-18T14:50:47.327Z,2.70
2018-02-18T14:53:25.829Z,2.70
2018-02-18T14:56:04.367Z,2.80
2018-02-18T14:58:30.648Z,2.70
2018-02-18T15:00:57.664Z,2.70
2018-02-18T15:03:23.967Z,2.60
2018-02-18T15:05:50.260Z,2.60
2018-02-18T15:08:18.354Z,2.50
2018-02-18T15:10:45.688Z,2.50
2018-02-18T15:13:11.963Z,2.30
2018-02-18T15:15:38.238Z,2.10
2018-02-18T15:18:05.286Z,1.90
2018-02-18T15:20:33.362Z,1.90
2018-02-18T15:23:00.392Z,1.80
2018-02-18T15:25:27.441Z,1.80
2018-02-18T15:27:54.487Z,1.80
2018-02-18T15:30:21.520Z,1.70
2018-02-18T15:32:47.835Z,1.60
2018-02-18T15:35:14.135Z,1.60
2018-02-18T15:37:40.443Z,1.50
2018-02-18T15:40:07.466Z,1.30
2018-02-18T15:42:34.514Z,1.20
2018-02-18T15:45:01.558Z,1.20
2018-02-18T15:47:27.843Z,1.20
2018-02-18T15:49:54.198Z,1.20
2018-02-18T15:52:20.509Z,1.30
2018-02-18T15:54:46.805Z,1.20
2018-02-18T15:57:13.842Z,1.30
2018-02-18T15:59:40.855Z,1.20
2018-02-18T16:02:07.139Z,1.20
2018-02-18T16:04:33.415Z,1.30
2018-02-18T16:06:59.774Z,1.30
2018-02-18T16:09:27.355Z,1.40
2018-02-18T16:11:53.649Z,1.20
2018-02-18T16:14:19.995Z,1.30
2018-02-18T16:16:46.307Z,1.20
2018-02-18T16:19:12.587Z,1.10
2018-02-18T16:21:38.859Z,1.10
2018-02-18T16:24:05.180Z,1.10
2018-02-18T16:26:32.575Z,1.00
2018-02-18T16:28:59.636Z,0.90
2018-02-18T16:31:26.667Z,0.90
2018-02-18T16:33:53.699Z,0.90
2018-02-18T16:36:20.091Z,0.90
2018-02-18T16:38:46.383Z,0.90
2018-02-18T16:41:13.440Z,0.90
2018-02-18T16:43:39.760Z,0.90
2018-02-18T16:46:06.811Z,0.90
2018-02-18T16:48:33.836Z,1.00
2018-02-18T16:51:00.130Z,0.90
2018-02-18T16:53:26.439Z,0.90
2018-02-18T16:55:52.755Z,0.80
2018-02-18T16:58:19.817Z,0.80
2018-02-18T17:00:46.831Z,0.70
2018-02-18T17:03:13.164Z,0.60
2018-02-18T17:05:40.186Z,0.60
2018-02-18T17:08:06.459Z,0.60
2018-02-18T17:10:33.470Z,0.60
2018-02-18T17:12:59.751Z,0.50
2018-02-18T17:15:26.052Z,0.60
2018-02-18T17:17:53.066Z,0.60
2018-02-18T17:20:19.345Z,0.50
2018-02-18T17:22:46.370Z,0.60
2018-02-18T17:25:12.704Z,0.60
2018-02-18T17:27:39.736Z,0.50
2018-02-18T17:30:06.013Z,0.50
2018-02-18T17:32:32.309Z,0.50
2018-02-18T17:34:59.323Z,0.40
2018-02-18T17:37:25.600Z,0.30
2018-02-18T17:39:52.652Z,0.40
2018-02-18T17:42:19.679Z,0.40
2018-02-18T17:44:46.695Z,0.30
2018-02-18T17:47:12.974Z,0.30
2018-02-18T17:49:39.992Z,0.40
2018-02-18T17:52:06.286Z,0.30
2018-02-18T17:54:32.563Z,0.40
2018-02-18T17:56:59.960Z,0.30
2018-02-18T17:59:26.397Z,0.30
2018-02-18T18:01:52.707Z,0.20
2018-02-18T18:04:19.029Z,0.20
2018-02-18T18:06:46.059Z,0.10
2018-02-18T18:09:13.079Z,0.00
2018-02-18T18:11:39.369Z,0.00
2018-02-18T18:14:05.687Z,0.10
2018-02-18T18:16:32.007Z,0.10
2018-02-18T18:18:59.068Z,-0.10
2018-02-18T18:21:26.116Z,-0.20
2018-02-18T18:23:52.395Z,-0.20
2018-02-18T18:26:18.675Z,-0.30
2018-02-18T18:28:44.996Z,-0.30
2018-02-18T18:31:12.035Z,-0.40
2018-02-18T18:33:39.060Z,-0.50
2018-02-18T18:36:05.352Z,-0.50
2018-02-18T18:38:31.631Z,-0.50
2018-02-18T18:40:57.924Z,-0.60
2018-02-18T18:43:24.222Z,-0.50
2018-02-18T18:45:51.247Z,-0.50
2018-02-18T18:48:17.522Z,-0.50
2018-02-18T18:50:43.804Z,-0.50
2018-02-18T18:53:10.827Z,-0.30
2018-02-18T18:55:37.197Z,-0.30
2018-02-18T18:58:04.271Z,-0.10
2018-02-18T19:00:30.597Z,-0.20
2018-02-18T19:02:56.919Z,-0.10
2018-02-18T19:05:23.264Z,0.00
2018-02-18T19:07:49.551Z,-0.10
2018-02-18T19:10:16.592Z,0.00
2018-02-18T19:12:42.958Z,0.00
2018-02-18T19:15:09.268Z,0.10
2018-02-18T19:17:36.328Z,0.10
2018-02-18T19:20:03.364Z,0.20
2018-02-18T19:22:30.435Z,0.30
2018-02-18T19:24:56.722Z,0.20
2018-02-18T19:27:23.041Z,0.30
2018-02-18T19:29:49.342Z,0.30
2018-02-18T19:32:15.648Z,0.30
2018-02-18T19:34:41.943Z,0.40
2018-02-18T19:37:08.223Z,0.40
2018-02-18T19:39:34.515Z,0.20
2018-02-18T19:42:01.548Z,0.10
2018-02-18T19:44:27.843Z,0.10
2018-02-18T19:46:54.784Z,0.30
2018-02-18T19:49:21.072Z,0.30
2018-02-18T19:51:48.112Z,0.20
2018-02-18T19:54:14.414Z,0.10
2018-02-18T19:56:40.741Z,0.10
2018-02-18T19:59:07.035Z,0.20
2018-02-18T20:01:33.397Z,0.10
2018-02-18T20:03:59.683Z,0.00
2018-02-18T20:06:27.294Z,0.10
2018-02-18T20:08:53.583Z,0.10
2018-02-18T20:11:19.912Z,0.10
2018-02-18T20:13:46.263Z,0.00
2018-02-18T20:16:12.574Z,0.10
2018-02-18T20:18:38.855Z,0.10
2018-02-18T20:21:05.171Z,0.10
2018-02-18T20:23:31.481Z,0.00
2018-02-18T20:25:57.775Z,0.00
2018-02-18T20:28:24.814Z,-0.10
2018-02-18T20:30:51.093Z,-0.20
2018-02-18T20:33:17.409Z,-0.10
2018-02-18T20:35:43.730Z,-0.10
2018-02-18T20:38:10.064Z,-0.10
2018-02-18T20:40:37.107Z,-0.20
2018-02-18T20:43:04.153Z,-0.30
2018-02-18T20:45:31.187Z,-0.30
2018-02-18T20:47:58.215Z,-0.30
2018-02-18T20:50:24.521Z,-0.30
2018-02-18T20:52:50.811Z,-0.30
2018-02-18T20:55:17.844Z,-0.20
2018-02-18T20:57:44.876Z,-0.30
2018-02-18T21:00:11.179Z,-0.30
2018-02-18T21:02:37.491Z,-0.30
2018-02-18T21:05:03.795Z,-0.20
2018-02-18T21:07:30.828Z,-0.30
2018-02-18T21:09:57.875Z,-0.20
2018-02-18T21:12:24.902Z,-0.20
2018-02-18T21:14:51.206Z,-0.20
2018-02-18T21:17:17.494Z,-0.20
2018-02-18T21:19:44.511Z,-0.30
2018-02-18T21:22:10.815Z,-0.40
2018-02-18T21:24:37.091Z,-0.30
2018-02-18T21:27:03.383Z,-0.30
2018-02-18T21:29:29.671Z,-0.40
2018-02-18T21:31:55.960Z,-0.40
2018-02-18T21:34:22.256Z,-0.60
2018-02-18T21:36:48.535Z,-0.50
2018-02-18T21:39:15.604Z,-0.40
2018-02-18T21:41:42.636Z,-0.40
2018-02-18T21:44:08.935Z,-0.40
2018-02-18T21:46:35.211Z,-0.50
2018-02-18T21:49:03.906Z,-0.70
2018-02-18T21:51:30.205Z,-0.70
2018-02-18T21:53:56.507Z,-0.70
2018-02-18T21:56:22.817Z,-0.70
2018-02-18T21:58:49.119Z,-0.80
2018-02-18T22:01:15.452Z,-0.90
2018-02-18T22:03:41.763Z,-0.80
2018-02-18T22:06:08.803Z,-0.80
2018-02-18T22:08:35.108Z,-0.80
2018-02-18T22:11:01.392Z,-0.70
2018-02-18T22:13:28.450Z,-0.60
2018-02-18T22:15:55.471Z,-0.70
2018-02-18T22:18:21.778Z,-0.80
2018-02-18T22:20:48.063Z,-0.80
2018-02-18T22:23:14.378Z,-0.70
2018-02-18T22:25:41.675Z,-0.80
2018-02-18T22:28:10.756Z,-0.80
2018-02-18T22:30:38.076Z,-0.90
2018-02-18T22:33:04.375Z,-0.90
2018-02-18T22:35:31.433Z,-0.80
2018-02-18T22:37:59.584Z,-0.80
2018-02-18T22:40:25.863Z,-0.90
2018-02-18T22:42:52.139Z,-0.90
2018-02-18T22:45:18.419Z,-0.90
2018-02-18T22:47:47.676Z,-0.90
2018-02-18T22:50:13.957Z,-0.90
2018-02-18T22:52:40.241Z,-0.80
2018-02-18T22:55:07.302Z,-0.70
2018-02-18T22:57:34.335Z,-0.70
2018-02-18T23:00:00.640Z,-0.70
2018-02-18T23:02:26.985Z,-0.70
2018-02-18T23:04:53.311Z,-0.70
2018-02-18T23:07:19.719Z,-0.70
2018-02-18T23:09:46.006Z,-0.70
2018-02-18T23:12:13.043Z,-0.70
2018-02-18T23:14:39.338Z,-0.70
2018-02-18T23:17:05.686Z,-0.80
2018-02-18T23:19:32.000Z,-0.80
2018-02-18T23:21:58.279Z,-0.80
2018-02-18T23:24:24.631Z,-1.00
2018-02-18T23:26:51.692Z,-0.90
2018-02-18T23:29:18.728Z,-0.90
2018-02-18T23:31:45.784Z,-1.00
2018-02-18T23:34:12.085Z,-1.00
2018-02-18T23:36:38.391Z,-1.10
2018-02-18T23:39:04.675Z,-1.00
2018-02-18T23:41:31.004Z,-0.90
2018-02-18T23:43:57.302Z,-0.90
2018-02-18T23:46:23.619Z,-0.90
2018-02-18T23:48:49.923Z,-1.00
2018-02-18T23:51:16.946Z,-0.80
2018-02-18T23:53:43.276Z,-0.80
2018-02-18T23:56:09.588Z,-0.80
2018-02-18T23:58:35.923Z,-0.80
